Garfield, Ohio
Current Conditions -  °F | °C
As of 10:09 AM on Saturday 22 Nov 2014 (Local Time) from KBKL Reporting Station
Haze Haze  
Wind Chill: 25°   Ceiling: 3500
Heat Index: 36°   Visibility: 6mi
Dew Point: 32°   Wind: 21mph
Humidity: 86%   Direction: 160°SSE
Pressure: 30.14"   Gusts: 31mph
Location:  41.4062°N, 81.6149°W
Report Text: KBKL 221509Z 16018G27KT 6SM BR FEW011 SCT026 OVC035 02/00 A3014 RMK AO2 PK WND 15027/1502 RAE06SNB1454E08 P0001 T00220000
Loading
Personal Weather Stations






























Interactive Weather Map New forecast layout! Learn more

10-Day Weather Forecast

Advertisements
Track Severe Weather on mobile